sensor_id;sensor_type;location;lat;lon;timestamp;temperature;humidity
4183;DHT22;2105;52.300;9.182;2023-11-19T00:02:23;9.00;99.90
4183;DHT22;2105;52.300;9.182;2023-11-19T00:04:50;9.10;99.90
4183;DHT22;2105;52.300;9.182;2023-11-19T00:07:17;9.10;99.90
4183;DHT22;2105;52.300;9.182;2023-11-19T00:09:43;9.10;99.90
4183;DHT22;2105;52.300;9.182;2023-11-19T00:12:10;9.10;99.90
4183;DHT22;2105;52.300;9.182;2023-11-19T00:14:39;9.10;99.90
4183;DHT22;2105;52.300;9.182;2023-11-19T00:17:06;9.10;99.90
4183;DHT22;2105;52.300;9.182;2023-11-19T00:19:34;9.00;99.90
4183;DHT22;2105;52.300;9.182;2023-11-19T00:22:01;9.00;99.90
4183;DHT22;2105;52.300;9.182;2023-11-19T00:24:28;9.00;99.90
4183;DHT22;2105;52.300;9.182;2023-11-19T00:26:56;9.00;99.90
4183;DHT22;2105;52.300;9.182;2023-11-19T00:29:23;9.10;99.90
4183;DHT22;2105;52.300;9.182;2023-11-19T00:31:50;9.10;99.90
4183;DHT22;2105;52.300;9.182;2023-11-19T00:34:16;9.10;99.90
4183;DHT22;2105;52.300;9.182;2023-11-19T00:36:48;9.10;99.90
4183;DHT22;2105;52.300;9.182;2023-11-19T00:39:15;9.20;99.90
4183;DHT22;2105;52.300;9.182;2023-11-19T00:41:43;9.30;99.90
4183;DHT22;2105;52.300;9.182;2023-11-19T00:44:11;9.30;99.90
4183;DHT22;2105;52.300;9.182;2023-11-19T00:46:38;9.40;99.90
4183;DHT22;2105;52.300;9.182;2023-11-19T00:49:05;9.40;99.90
4183;DHT22;2105;52.300;9.182;2023-11-19T00:51:31;9.50;99.90
4183;DHT22;2105;52.300;9.182;2023-11-19T00:54:00;9.50;99.90
4183;DHT22;2105;52.300;9.182;2023-11-19T00:56:27;9.60;99.90
4183;DHT22;2105;52.300;9.182;2023-11-19T00:58:54;9.60;99.90
4183;DHT22;2105;52.300;9.182;2023-11-19T01:01:21;9.70;99.90
4183;DHT22;2105;52.300;9.182;2023-11-19T01:03:48;9.70;99.90
4183;DHT22;2105;52.300;9.182;2023-11-19T01:06:14;9.70;99.90
4183;DHT22;2105;52.300;9.182;2023-11-19T01:08:42;9.80;99.90
4183;DHT22;2105;52.300;9.182;2023-11-19T01:11:19;9.80;99.90
4183;DHT22;2105;52.300;9.182;2023-11-19T01:13:46;9.80;99.90
4183;DHT22;2105;52.300;9.182;2023-11-19T01:16:13;9.80;99.90
4183;DHT22;2105;52.300;9.182;2023-11-19T01:18:40;9.80;99.90
4183;DHT22;2105;52.300;9.182;2023-11-19T01:21:06;9.80;99.90
4183;DHT22;2105;52.300;9.182;2023-11-19T01:23:33;9.90;99.90
4183;DHT22;2105;52.300;9.182;2023-11-19T01:26:00;9.90;99.90
4183;DHT22;2105;52.300;9.182;2023-11-19T01:28:28;10.10;99.90
4183;DHT22;2105;52.300;9.182;2023-11-19T01:30:56;10.10;99.90
4183;DHT22;2105;52.300;9.182;2023-11-19T01:33:23;10.10;99.90
4183;DHT22;2105;52.300;9.182;2023-11-19T01:35:50;10.10;99.90
4183;DHT22;2105;52.300;9.182;2023-11-19T01:38:17;10.10;99.90
4183;DHT22;2105;52.300;9.182;2023-11-19T01:40:43;10.10;99.90
4183;DHT22;2105;52.300;9.182;2023-11-19T01:43:10;10.10;99.90
4183;DHT22;2105;52.300;9.182;2023-11-19T01:45:40;10.20;99.90
4183;DHT22;2105;52.300;9.182;2023-11-19T01:48:07;10.20;99.90
4183;DHT22;2105;52.300;9.182;2023-11-19T01:50:37;10.10;99.90
4183;DHT22;2105;52.300;9.182;2023-11-19T01:53:03;10.10;99.90
4183;DHT22;2105;52.300;9.182;2023-11-19T01:55:30;10.10;99.90
4183;DHT22;2105;52.300;9.182;2023-11-19T01:57:59;10.00;99.90
4183;DHT22;2105;52.300;9.182;2023-11-19T02:00:27;10.10;99.90
4183;DHT22;2105;52.300;9.182;2023-11-19T02:02:56;10.20;99.90
4183;DHT22;2105;52.300;9.182;2023-11-19T02:05:23;10.20;99.90
4183;DHT22;2105;52.300;9.182;2023-11-19T02:07:49;10.20;99.90
4183;DHT22;2105;52.300;9.182;2023-11-19T02:10:17;10.30;99.90
4183;DHT22;2105;52.300;9.182;2023-11-19T02:12:44;10.30;99.90
4183;DHT22;2105;52.300;9.182;2023-11-19T02:15:12;10.30;99.90
4183;DHT22;2105;52.300;9.182;2023-11-19T02:17:39;10.40;99.90
4183;DHT22;2105;52.300;9.182;2023-11-19T02:20:07;10.40;99.90
4183;DHT22;2105;52.300;9.182;2023-11-19T02:22:37;10.40;99.90
4183;DHT22;2105;52.300;9.182;2023-11-19T02:25:06;10.50;99.90
4183;DHT22;2105;52.300;9.182;2023-11-19T02:27:46;10.50;99.90
4183;DHT22;2105;52.300;9.182;2023-11-19T02:30:14;10.50;99.90
4183;DHT22;2105;52.300;9.182;2023-11-19T02:32:41;10.50;99.90
4183;DHT22;2105;52.300;9.182;2023-11-19T02:35:08;10.60;99.90
4183;DHT22;2105;52.300;9.182;2023-11-19T02:37:35;10.60;99.90
4183;DHT22;2105;52.300;9.182;2023-11-19T02:40:01;10.60;99.90
4183;DHT22;2105;52.300;9.182;2023-11-19T02:42:30;10.70;99.90
4183;DHT22;2105;52.300;9.182;2023-11-19T02:44:58;10.70;99.90
4183;DHT22;2105;52.300;9.182;2023-11-19T02:47:25;10.60;99.90
4183;DHT22;2105;52.300;9.182;2023-11-19T02:49:53;10.70;99.90
4183;DHT22;2105;52.300;9.182;2023-11-19T02:52:20;10.70;99.90
4183;DHT22;2105;52.300;9.182;2023-11-19T02:54:46;10.80;99.90
4183;DHT22;2105;52.300;9.182;2023-11-19T02:57:13;10.80;99.90
4183;DHT22;2105;52.300;9.182;2023-11-19T02:59:40;10.80;99.90
4183;DHT22;2105;52.300;9.182;2023-11-19T03:02:10;10.90;99.90
4183;DHT22;2105;52.300;9.182;2023-11-19T03:04:37;10.90;99.90
4183;DHT22;2105;52.300;9.182;2023-11-19T03:07:05;10.90;99.90
4183;DHT22;2105;52.300;9.182;2023-11-19T03:09:32;11.00;99.90
4183;DHT22;2105;52.300;9.182;2023-11-19T03:11:59;11.00;99.90
4183;DHT22;2105;52.300;9.182;2023-11-19T03:14:26;11.10;99.90
4183;DHT22;2105;52.300;9.182;2023-11-19T03:16:52;11.10;99.90
4183;DHT22;2105;52.300;9.182;2023-11-19T03:19:20;11.10;99.90
4183;DHT22;2105;52.300;9.182;2023-11-19T03:21:47;11.10;99.90
4183;DHT22;2105;52.300;9.182;2023-11-19T03:24:14;11.10;99.90
4183;DHT22;2105;52.300;9.182;2023-11-19T03:26:41;11.10;99.90
4183;DHT22;2105;52.300;9.182;2023-11-19T03:29:08;11.20;99.90
4183;DHT22;2105;52.300;9.182;2023-11-19T03:31:34;11.20;99.90
4183;DHT22;2105;52.300;9.182;2023-11-19T03:34:01;11.20;99.90
4183;DHT22;2105;52.300;9.182;2023-11-19T03:36:33;11.20;99.90
4183;DHT22;2105;52.300;9.182;2023-11-19T03:39:00;11.30;99.90
4183;DHT22;2105;52.300;9.182;2023-11-19T03:41:26;11.30;99.90
4183;DHT22;2105;52.300;9.182;2023-11-19T03:43:53;11.30;99.90
4183;DHT22;2105;52.300;9.182;2023-11-19T03:46:21;11.40;99.90
4183;DHT22;2105;52.300;9.182;2023-11-19T03:48:49;11.40;99.90
4183;DHT22;2105;52.300;9.182;2023-11-19T03:51:16;11.40;99.90
4183;DHT22;2105;52.300;9.182;2023-11-19T03:53:45;11.40;99.90
4183;DHT22;2105;52.300;9.182;2023-11-19T03:56:12;11.50;99.90
4183;DHT22;2105;52.300;9.182;2023-11-19T03:58:39;11.40;99.90
4183;DHT22;2105;52.300;9.182;2023-11-19T04:01:06;11.50;99.90
4183;DHT22;2105;52.300;9.182;2023-11-19T04:03:37;11.50;99.90
4183;DHT22;2105;52.300;9.182;2023-11-19T04:08:31;11.60;99.90
4183;DHT22;2105;52.300;9.182;2023-11-19T04:11:00;11.50;99.90
4183;DHT22;2105;52.300;9.182;2023-11-19T04:13:27;11.60;99.90
4183;DHT22;2105;52.300;9.182;2023-11-19T04:15:54;11.60;99.90
4183;DHT22;2105;52.300;9.182;2023-11-19T04:18:21;11.60;99.90
4183;DHT22;2105;52.300;9.182;2023-11-19T04:20:47;11.60;99.90
4183;DHT22;2105;52.300;9.182;2023-11-19T04:23:15;11.60;99.90
4183;DHT22;2105;52.300;9.182;2023-11-19T04:25:42;11.60;99.90
4183;DHT22;2105;52.300;9.182;2023-11-19T04:28:10;11.60;99.90
4183;DHT22;2105;52.300;9.182;2023-11-19T04:30:37;11.60;99.90
4183;DHT22;2105;52.300;9.182;2023-11-19T04:33:04;11.70;99.90
4183;DHT22;2105;52.300;9.182;2023-11-19T04:35:31;11.70;99.90
4183;DHT22;2105;52.300;9.182;2023-11-19T04:37:58;11.70;99.90
4183;DHT22;2105;52.300;9.182;2023-11-19T04:40:24;11.70;99.90
4183;DHT22;2105;52.300;9.182;2023-11-19T04:42:51;11.70;99.90
4183;DHT22;2105;52.300;9.182;2023-11-19T04:45:19;11.80;99.90
4183;DHT22;2105;52.300;9.182;2023-11-19T04:47:46;11.70;99.90
4183;DHT22;2105;52.300;9.182;2023-11-19T04:50:13;11.80;99.90
4183;DHT22;2105;52.300;9.182;2023-11-19T04:52:40;11.80;99.90
4183;DHT22;2105;52.300;9.182;2023-11-19T04:55:08;11.90;99.90
4183;DHT22;2105;52.300;9.182;2023-11-19T04:57:38;11.80;99.90
4183;DHT22;2105;52.300;9.182;2023-11-19T05:00:05;11.80;99.90
4183;DHT22;2105;52.300;9.182;2023-11-19T05:02:34;11.80;99.90
4183;DHT22;2105;52.300;9.182;2023-11-19T05:05:01;11.90;99.90
4183;DHT22;2105;52.300;9.182;2023-11-19T05:07:29;11.90;99.90
4183;DHT22;2105;52.300;9.182;2023-11-19T05:09:56;11.90;99.90
4183;DHT22;2105;52.300;9.182;2023-11-19T05:12:24;11.90;99.90
4183;DHT22;2105;52.300;9.182;2023-11-19T05:14:50;11.90;99.90
4183;DHT22;2105;52.300;9.182;2023-11-19T05:17:17;12.00;99.90
4183;DHT22;2105;52.300;9.182;2023-11-19T05:19:46;12.00;99.90
4183;DHT22;2105;52.300;9.182;2023-11-19T05:22:13;12.00;99.90
4183;DHT22;2105;52.300;9.182;2023-11-19T05:24:40;12.00;99.90
4183;DHT22;2105;52.300;9.182;2023-11-19T05:27:07;12.00;99.90
4183;DHT22;2105;52.300;9.182;2023-11-19T05:29:34;12.00;99.90
4183;DHT22;2105;52.300;9.182;2023-11-19T05:32:01;11.90;99.90
4183;DHT22;2105;52.300;9.182;2023-11-19T05:34:28;12.00;99.90
4183;DHT22;2105;52.300;9.182;2023-11-19T05:36:56;12.00;99.90
4183;DHT22;2105;52.300;9.182;2023-11-19T05:39:23;11.90;99.90
4183;DHT22;2105;52.300;9.182;2023-11-19T05:41:50;11.90;99.90
4183;DHT22;2105;52.300;9.182;2023-11-19T05:44:17;11.90;99.90
4183;DHT22;2105;52.300;9.182;2023-11-19T05:46:44;11.90;99.90
4183;DHT22;2105;52.300;9.182;2023-11-19T05:49:11;11.90;99.90
4183;DHT22;2105;52.300;9.182;2023-11-19T05:51:39;11.90;99.90
4183;DHT22;2105;52.300;9.182;2023-11-19T05:54:08;11.90;99.90
4183;DHT22;2105;52.300;9.182;2023-11-19T05:56:35;11.90;99.90
4183;DHT22;2105;52.300;9.182;2023-11-19T05:59:02;12.00;99.90
4183;DHT22;2105;52.300;9.182;2023-11-19T06:01:33;11.90;99.90
4183;DHT22;2105;52.300;9.182;2023-11-19T06:04:00;11.90;99.90
4183;DHT22;2105;52.300;9.182;2023-11-19T06:06:28;11.90;99.90
4183;DHT22;2105;52.300;9.182;2023-11-19T06:08:54;11.90;99.90
4183;DHT22;2105;52.300;9.182;2023-11-19T06:11:23;12.00;99.90
4183;DHT22;2105;52.300;9.182;2023-11-19T06:13:52;12.00;99.90
4183;DHT22;2105;52.300;9.182;2023-11-19T06:16:20;12.00;99.90
4183;DHT22;2105;52.300;9.182;2023-11-19T06:18:47;11.90;99.90
4183;DHT22;2105;52.300;9.182;2023-11-19T06:21:14;12.00;99.90
4183;DHT22;2105;52.300;9.182;2023-11-19T06:23:41;11.90;99.90
4183;DHT22;2105;52.300;9.182;2023-11-19T06:26:08;11.90;99.90
4183;DHT22;2105;52.300;9.182;2023-11-19T06:28:37;11.90;99.90
4183;DHT22;2105;52.300;9.182;2023-11-19T06:31:04;11.80;99.90
4183;DHT22;2105;52.300;9.182;2023-11-19T06:33:31;11.80;99.90
4183;DHT22;2105;52.300;9.182;2023-11-19T06:35:59;11.80;99.90
4183;DHT22;2105;52.300;9.182;2023-11-19T06:38:26;11.80;99.90
4183;DHT22;2105;52.300;9.182;2023-11-19T06:40:52;11.80;99.90
4183;DHT22;2105;52.300;9.182;2023-11-19T06:43:21;11.70;99.90
4183;DHT22;2105;52.300;9.182;2023-11-19T06:45:49;11.80;99.90
4183;DHT22;2105;52.300;9.182;2023-11-19T06:48:16;11.70;99.90
4183;DHT22;2105;52.300;9.182;2023-11-19T06:50:43;11.70;99.90
4183;DHT22;2105;52.300;9.182;2023-11-19T06:53:10;11.60;99.90
4183;DHT22;2105;52.300;9.182;2023-11-19T06:55:37;11.50;99.90
4183;DHT22;2105;52.300;9.182;2023-11-19T06:58:05;11.60;99.90
4183;DHT22;2105;52.300;9.182;2023-11-19T07:00:32;11.50;99.90
4183;DHT22;2105;52.300;9.182;2023-11-19T07:03:02;11.50;99.90
4183;DHT22;2105;52.300;9.182;2023-11-19T07:05:31;11.50;99.90
4183;DHT22;2105;52.300;9.182;2023-11-19T07:07:58;11.50;99.90
4183;DHT22;2105;52.300;9.182;2023-11-19T07:10:26;11.50;99.90
4183;DHT22;2105;52.300;9.182;2023-11-19T07:12:55;11.50;99.90
4183;DHT22;2105;52.300;9.182;2023-11-19T07:15:23;11.50;99.90
4183;DHT22;2105;52.300;9.182;2023-11-19T07:17:50;11.60;99.90
4183;DHT22;2105;52.300;9.182;2023-11-19T07:20:21;11.60;99.90
4183;DHT22;2105;52.300;9.182;2023-11-19T07:22:48;11.60;99.90
4183;DHT22;2105;52.300;9.182;2023-11-19T07:25:14;11.60;99.90
4183;DHT22;2105;52.300;9.182;2023-11-19T07:27:41;11.60;99.90
4183;DHT22;2105;52.300;9.182;2023-11-19T07:30:09;11.60;99.90
4183;DHT22;2105;52.300;9.182;2023-11-19T07:32:35;11.60;99.90
4183;DHT22;2105;52.300;9.182;2023-11-19T07:35:06;11.60;99.90
4183;DHT22;2105;52.300;9.182;2023-11-19T07:37:35;11.60;99.90
4183;DHT22;2105;52.300;9.182;2023-11-19T07:40:02;11.60;99.90
4183;DHT22;2105;52.300;9.182;2023-11-19T07:42:29;11.60;99.90
4183;DHT22;2105;52.300;9.182;2023-11-19T07:44:56;11.60;99.90
4183;DHT22;2105;52.300;9.182;2023-11-19T07:47:23;11.60;99.90
4183;DHT22;2105;52.300;9.182;2023-11-19T07:49:50;11.70;99.90
4183;DHT22;2105;52.300;9.182;2023-11-19T07:52:17;11.70;99.90
4183;DHT22;2105;52.300;9.182;2023-11-19T07:54:45;11.70;99.90
4183;DHT22;2105;52.300;9.182;2023-11-19T07:57:12;11.70;99.90
4183;DHT22;2105;52.300;9.182;2023-11-19T07:59:39;11.70;99.90
4183;DHT22;2105;52.300;9.182;2023-11-19T08:02:06;11.70;99.90
4183;DHT22;2105;52.300;9.182;2023-11-19T08:04:33;11.60;99.90
4183;DHT22;2105;52.300;9.182;2023-11-19T08:07:01;11.60;99.90
4183;DHT22;2105;52.300;9.182;2023-11-19T08:09:28;11.60;99.90
4183;DHT22;2105;52.300;9.182;2023-11-19T08:11:57;11.60;99.90
4183;DHT22;2105;52.300;9.182;2023-11-19T08:14:24;11.60;99.90
4183;DHT22;2105;52.300;9.182;2023-11-19T08:16:51;11.50;99.90
4183;DHT22;2105;52.300;9.182;2023-11-19T08:19:18;11.50;99.90
4183;DHT22;2105;52.300;9.182;2023-11-19T08:21:45;11.60;99.90
4183;DHT22;2105;52.300;9.182;2023-11-19T08:24:12;11.60;99.90
4183;DHT22;2105;52.300;9.182;2023-11-19T08:26:41;11.60;99.90
4183;DHT22;2105;52.300;9.182;2023-11-19T08:29:09;11.60;99.90
4183;DHT22;2105;52.300;9.182;2023-11-19T08:31:36;11.60;99.90
4183;DHT22;2105;52.300;9.182;2023-11-19T08:34:03;11.60;99.90
4183;DHT22;2105;52.300;9.182;2023-11-19T08:36:30;11.60;99.90
4183;DHT22;2105;52.300;9.182;2023-11-19T08:38:57;11.60;99.90
4183;DHT22;2105;52.300;9.182;2023-11-19T08:41:24;11.60;99.90
4183;DHT22;2105;52.300;9.182;2023-11-19T08:43:51;11.60;99.90
4183;DHT22;2105;52.300;9.182;2023-11-19T08:46:19;11.60;99.90
4183;DHT22;2105;52.300;9.182;2023-11-19T08:48:46;11.60;99.90
4183;DHT22;2105;52.300;9.182;2023-11-19T08:51:13;11.70;99.90
4183;DHT22;2105;52.300;9.182;2023-11-19T08:53:42;11.80;99.90
4183;DHT22;2105;52.300;9.182;2023-11-19T08:56:08;11.60;99.90
4183;DHT22;2105;52.300;9.182;2023-11-19T08:58:35;11.60;99.90
4183;DHT22;2105;52.300;9.182;2023-11-19T09:01:02;11.60;99.90
4183;DHT22;2105;52.300;9.182;2023-11-19T09:03:32;11.70;99.90
4183;DHT22;2105;52.300;9.182;2023-11-19T09:06:00;11.80;99.90
4183;DHT22;2105;52.300;9.182;2023-11-19T09:08:27;11.80;99.90
4183;DHT22;2105;52.300;9.182;2023-11-19T09:10:54;12.00;99.90
4183;DHT22;2105;52.300;9.182;2023-11-19T09:13:21;12.10;99.90
4183;DHT22;2105;52.300;9.182;2023-11-19T09:15:48;12.10;99.90
4183;DHT22;2105;52.300;9.182;2023-11-19T09:18:15;12.20;99.90
4183;DHT22;2105;52.300;9.182;2023-11-19T09:20:43;12.20;99.90
4183;DHT22;2105;52.300;9.182;2023-11-19T09:23:11;12.20;99.90
4183;DHT22;2105;52.300;9.182;2023-11-19T09:25:38;12.20;99.90
4183;DHT22;2105;52.300;9.182;2023-11-19T09:28:05;12.20;99.90
4183;DHT22;2105;52.300;9.182;2023-11-19T09:30:31;12.10;99.90
4183;DHT22;2105;52.300;9.182;2023-11-19T09:32:59;12.10;99.90
4183;DHT22;2105;52.300;9.182;2023-11-19T09:35:26;12.20;99.90
4183;DHT22;2105;52.300;9.182;2023-11-19T09:37:54;12.20;99.90
4183;DHT22;2105;52.300;9.182;2023-11-19T09:40:21;12.40;99.90
4183;DHT22;2105;52.300;9.182;2023-11-19T09:42:48;12.60;11.30
4183;DHT22;2105;52.300;9.182;2023-11-19T09:45:16;12.70;1.00
4183;DHT22;2105;52.300;9.182;2023-11-19T09:47:45;12.50;1.00
4183;DHT22;2105;52.300;9.182;2023-11-19T09:50:16;12.40;1.00
4183;DHT22;2105;52.300;9.182;2023-11-19T09:52:43;12.30;1.00
4183;DHT22;2105;52.300;9.182;2023-11-19T09:55:12;12.30;18.90
4183;DHT22;2105;52.300;9.182;2023-11-19T09:57:39;12.30;24.90
4183;DHT22;2105;52.300;9.182;2023-11-19T10:00:07;12.20;98.20
4183;DHT22;2105;52.300;9.182;2023-11-19T10:02:36;12.20;99.90
4183;DHT22;2105;52.300;9.182;2023-11-19T10:05:05;12.20;99.90
4183;DHT22;2105;52.300;9.182;2023-11-19T10:07:33;12.20;99.90
4183;DHT22;2105;52.300;9.182;2023-11-19T10:10:00;12.20;99.90
4183;DHT22;2105;52.300;9.182;2023-11-19T10:12:28;12.10;99.90
4183;DHT22;2105;52.300;9.182;2023-11-19T10:14:57;12.10;99.90
4183;DHT22;2105;52.300;9.182;2023-11-19T10:17:27;12.10;99.90
4183;DHT22;2105;52.300;9.182;2023-11-19T10:19:54;12.00;99.90
4183;DHT22;2105;52.300;9.182;2023-11-19T10:22:22;11.90;99.90
4183;DHT22;2105;52.300;9.182;2023-11-19T10:24:49;11.70;99.90
4183;DHT22;2105;52.300;9.182;2023-11-19T10:27:17;11.70;99.90
4183;DHT22;2105;52.300;9.182;2023-11-19T10:29:46;11.80;99.90
4183;DHT22;2105;52.300;9.182;2023-11-19T10:32:13;11.90;99.90
4183;DHT22;2105;52.300;9.182;2023-11-19T10:34:40;12.10;99.90
4183;DHT22;2105;52.300;9.182;2023-11-19T10:37:08;12.20;99.90
4183;DHT22;2105;52.300;9.182;2023-11-19T10:39:52;12.30;99.90
4183;DHT22;2105;52.300;9.182;2023-11-19T10:42:20;12.20;99.90
4183;DHT22;2105;52.300;9.182;2023-11-19T10:44:48;12.30;99.90
4183;DHT22;2105;52.300;9.182;2023-11-19T10:47:15;12.40;99.90
4183;DHT22;2105;52.300;9.182;2023-11-19T10:49:46;12.60;99.90
4183;DHT22;2105;52.300;9.182;2023-11-19T10:52:15;12.70;1.00
4183;DHT22;2105;52.300;9.182;2023-11-19T10:54:44;12.70;1.00
4183;DHT22;2105;52.300;9.182;2023-11-19T10:57:20;12.60;16.20
4183;DHT22;2105;52.300;9.182;2023-11-19T10:59:49;12.60;1.00
4183;DHT22;2105;52.300;9.182;2023-11-19T11:02:21;12.60;1.00
4183;DHT22;2105;52.300;9.182;2023-11-19T11:04:50;12.60;1.00
4183;DHT22;2105;52.300;9.182;2023-11-19T11:07:20;12.60;1.00
4183;DHT22;2105;52.300;9.182;2023-11-19T11:09:48;12.60;1.00
4183;DHT22;2105;52.300;9.182;2023-11-19T11:12:17;12.60;1.00
4183;DHT22;2105;52.300;9.182;2023-11-19T11:14:51;12.40;1.00
4183;DHT22;2105;52.300;9.182;2023-11-19T11:17:24;12.40;10.50
4183;DHT22;2105;52.300;9.182;2023-11-19T11:19:53;12.40;99.90
4183;DHT22;2105;52.300;9.182;2023-11-19T11:22:21;12.40;99.90
4183;DHT22;2105;52.300;9.182;2023-11-19T11:25:11;12.40;85.80
4183;DHT22;2105;52.300;9.182;2023-11-19T11:27:49;12.40;99.90
4183;DHT22;2105;52.300;9.182;2023-11-19T11:30:29;12.50;44.60
4183;DHT22;2105;52.300;9.182;2023-11-19T11:33:11;12.60;1.00
4183;DHT22;2105;52.300;9.182;2023-11-19T11:35:51;12.60;1.00
4183;DHT22;2105;52.300;9.182;2023-11-19T11:38:21;12.60;1.00
4183;DHT22;2105;52.300;9.182;2023-11-19T11:41:14;12.80;1.00
4183;DHT22;2105;52.300;9.182;2023-11-19T11:43:44;12.80;1.00
4183;DHT22;2105;52.300;9.182;2023-11-19T11:49:13;12.80;1.00
4183;DHT22;2105;52.300;9.182;2023-11-19T11:52:01;12.80;1.00
4183;DHT22;2105;52.300;9.182;2023-11-19T11:54:28;12.80;1.00
4183;DHT22;2105;52.300;9.182;2023-11-19T11:57:17;12.60;1.00
4183;DHT22;2105;52.300;9.182;2023-11-19T11:59:48;12.50;1.00
4183;DHT22;2105;52.300;9.182;2023-11-19T12:02:16;12.40;1.00
4183;DHT22;2105;52.300;9.182;2023-11-19T12:04:47;12.40;1.00
4183;DHT22;2105;52.300;9.182;2023-11-19T12:07:16;12.30;99.90
4183;DHT22;2105;52.300;9.182;2023-11-19T12:09:47;12.20;99.90
4183;DHT22;2105;52.300;9.182;2023-11-19T12:12:22;12.20;99.90
4183;DHT22;2105;52.300;9.182;2023-11-19T12:15:02;12.10;99.90
4183;DHT22;2105;52.300;9.182;2023-11-19T12:17:42;12.10;99.90
4183;DHT22;2105;52.300;9.182;2023-11-19T12:20:12;12.00;99.90
4183;DHT22;2105;52.300;9.182;2023-11-19T12:22:40;12.10;99.90
4183;DHT22;2105;52.300;9.182;2023-11-19T12:25:08;12.00;99.90
4183;DHT22;2105;52.300;9.182;2023-11-19T12:27:35;12.00;99.90
4183;DHT22;2105;52.300;9.182;2023-11-19T12:30:03;11.90;99.90
4183;DHT22;2105;52.300;9.182;2023-11-19T12:32:40;11.80;99.90
4183;DHT22;2105;52.300;9.182;2023-11-19T12:35:07;11.70;99.90
4183;DHT22;2105;52.300;9.182;2023-11-19T12:37:41;11.70;99.90
4183;DHT22;2105;52.300;9.182;2023-11-19T12:40:13;11.70;99.90
4183;DHT22;2105;52.300;9.182;2023-11-19T12:42:40;11.70;99.90
4183;DHT22;2105;52.300;9.182;2023-11-19T12:45:07;11.60;99.90
4183;DHT22;2105;52.300;9.182;2023-11-19T12:47:36;11.60;99.90
4183;DHT22;2105;52.300;9.182;2023-11-19T12:50:03;11.60;99.90
4183;DHT22;2105;52.300;9.182;2023-11-19T12:52:29;11.60;99.90
4183;DHT22;2105;52.300;9.182;2023-11-19T12:55:26;11.60;99.90
4183;DHT22;2105;52.300;9.182;2023-11-19T12:57:53;11.60;99.90
4183;DHT22;2105;52.300;9.182;2023-11-19T13:00:22;11.60;99.90
4183;DHT22;2105;52.300;9.182;2023-11-19T13:02:50;11.70;99.90
4183;DHT22;2105;52.300;9.182;2023-11-19T13:05:24;11.70;99.90
4183;DHT22;2105;52.300;9.182;2023-11-19T13:07:58;11.80;99.90
4183;DHT22;2105;52.300;9.182;2023-11-19T13:10:50;11.80;99.90
4183;DHT22;2105;52.300;9.182;2023-11-19T13:13:17;11.80;99.90
4183;DHT22;2105;52.300;9.182;2023-11-19T13:15:44;11.90;99.90
4183;DHT22;2105;52.300;9.182;2023-11-19T13:18:11;11.90;99.90
4183;DHT22;2105;52.300;9.182;2023-11-19T13:20:39;11.90;99.90
4183;DHT22;2105;52.300;9.182;2023-11-19T13:23:06;11.90;99.90
4183;DHT22;2105;52.300;9.182;2023-11-19T13:25:34;12.00;99.90
4183;DHT22;2105;52.300;9.182;2023-11-19T13:28:02;12.00;99.90
4183;DHT22;2105;52.300;9.182;2023-11-19T13:30:29;12.00;99.90
4183;DHT22;2105;52.300;9.182;2023-11-19T13:32:56;12.00;99.90
4183;DHT22;2105;52.300;9.182;2023-11-19T13:35:23;12.00;99.90
4183;DHT22;2105;52.300;9.182;2023-11-19T13:37:50;12.10;99.90
4183;DHT22;2105;52.300;9.182;2023-11-19T13:40:17;12.10;99.90
4183;DHT22;2105;52.300;9.182;2023-11-19T13:42:46;12.10;99.90
4183;DHT22;2105;52.300;9.182;2023-11-19T13:45:14;12.20;99.90
4183;DHT22;2105;52.300;9.182;2023-11-19T13:47:41;12.20;99.90
4183;DHT22;2105;52.300;9.182;2023-11-19T13:50:09;12.20;99.90
4183;DHT22;2105;52.300;9.182;2023-11-19T13:52:36;12.20;99.90
4183;DHT22;2105;52.300;9.182;2023-11-19T13:55:06;12.40;99.90
4183;DHT22;2105;52.300;9.182;2023-11-19T13:57:34;12.50;99.90
4183;DHT22;2105;52.300;9.182;2023-11-19T14:00:02;12.50;99.90
4183;DHT22;2105;52.300;9.182;2023-11-19T14:02:31;12.40;99.90
4183;DHT22;2105;52.300;9.182;2023-11-19T14:04:58;12.30;99.90
4183;DHT22;2105;52.300;9.182;2023-11-19T14:07:25;12.20;99.90
4183;DHT22;2105;52.300;9.182;2023-11-19T14:09:52;12.10;99.90
4183;DHT22;2105;52.300;9.182;2023-11-19T14:12:19;12.10;99.90
4183;DHT22;2105;52.300;9.182;2023-11-19T14:14:46;12.10;99.90
4183;DHT22;2105;52.300;9.182;2023-11-19T14:17:19;12.10;99.90
4183;DHT22;2105;52.300;9.182;2023-11-19T14:19:46;12.20;99.90
4183;DHT22;2105;52.300;9.182;2023-11-19T14:22:13;12.20;78.50
4183;DHT22;2105;52.300;9.182;2023-11-19T14:24:41;12.30;32.20
4183;DHT22;2105;52.300;9.182;2023-11-19T14:27:08;12.30;45.20
4183;DHT22;2105;52.300;9.182;2023-11-19T14:29:35;12.30;1.00
4183;DHT22;2105;52.300;9.182;2023-11-19T14:32:02;12.40;1.00
4183;DHT22;2105;52.300;9.182;2023-11-19T14:34:30;12.30;1.00
4183;DHT22;2105;52.300;9.182;2023-11-19T14:36:57;12.30;1.00
4183;DHT22;2105;52.300;9.182;2023-11-19T14:39:26;12.30;1.00
4183;DHT22;2105;52.300;9.182;2023-11-19T14:41:53;12.30;1.00
4183;DHT22;2105;52.300;9.182;2023-11-19T14:44:23;12.30;1.00
4183;DHT22;2105;52.300;9.182;2023-11-19T14:46:50;12.20;3.00
4183;DHT22;2105;52.300;9.182;2023-11-19T14:49:17;12.20;1.00
4183;DHT22;2105;52.300;9.182;2023-11-19T14:51:45;12.20;37.00
4183;DHT22;2105;52.300;9.182;2023-11-19T14:54:12;12.10;2.60
4183;DHT22;2105;52.300;9.182;2023-11-19T14:56:40;12.10;1.00
4183;DHT22;2105;52.300;9.182;2023-11-19T14:59:07;12.10;34.50
4183;DHT22;2105;52.300;9.182;2023-11-19T15:01:34;12.10;64.10
4183;DHT22;2105;52.300;9.182;2023-11-19T15:04:00;12.10;99.90
4183;DHT22;2105;52.300;9.182;2023-11-19T15:06:27;12.00;99.90
4183;DHT22;2105;52.300;9.182;2023-11-19T15:08:57;11.90;99.90
4183;DHT22;2105;52.300;9.182;2023-11-19T15:11:24;11.90;99.90
4183;DHT22;2105;52.300;9.182;2023-11-19T15:13:51;11.90;99.90
4183;DHT22;2105;52.300;9.182;2023-11-19T15:16:17;11.90;99.90
4183;DHT22;2105;52.300;9.182;2023-11-19T15:18:51;11.80;99.90
4183;DHT22;2105;52.300;9.182;2023-11-19T15:21:18;11.70;99.90
4183;DHT22;2105;52.300;9.182;2023-11-19T15:23:44;11.70;99.90
4183;DHT22;2105;52.300;9.182;2023-11-19T15:26:13;11.70;99.90
4183;DHT22;2105;52.300;9.182;2023-11-19T15:29:07;11.60;99.90
4183;DHT22;2105;52.300;9.182;2023-11-19T15:31:33;11.70;99.90
4183;DHT22;2105;52.300;9.182;2023-11-19T15:34:00;11.70;99.90
4183;DHT22;2105;52.300;9.182;2023-11-19T15:36:28;11.60;99.90
4183;DHT22;2105;52.300;9.182;2023-11-19T15:38:54;11.60;99.90
4183;DHT22;2105;52.300;9.182;2023-11-19T15:41:21;11.60;99.90
4183;DHT22;2105;52.300;9.182;2023-11-19T15:43:48;11.50;99.90
4183;DHT22;2105;52.300;9.182;2023-11-19T15:46:16;11.60;99.90
4183;DHT22;2105;52.300;9.182;2023-11-19T15:48:42;11.50;99.90
4183;DHT22;2105;52.300;9.182;2023-11-19T15:51:09;11.50;99.90
4183;DHT22;2105;52.300;9.182;2023-11-19T15:53:36;11.40;99.90
4183;DHT22;2105;52.300;9.182;2023-11-19T15:56:04;11.40;99.90
4183;DHT22;2105;52.300;9.182;2023-11-19T15:58:31;11.40;99.90
4183;DHT22;2105;52.300;9.182;2023-11-19T16:00:58;11.50;99.90
4183;DHT22;2105;52.300;9.182;2023-11-19T16:03:27;11.40;99.90
4183;DHT22;2105;52.300;9.182;2023-11-19T16:05:55;11.40;99.90
4183;DHT22;2105;52.300;9.182;2023-11-19T16:08:22;11.40;99.90
4183;DHT22;2105;52.300;9.182;2023-11-19T16:10:49;11.40;99.90
4183;DHT22;2105;52.300;9.182;2023-11-19T16:13:15;11.40;99.90
4183;DHT22;2105;52.300;9.182;2023-11-19T16:15:42;11.40;99.90
4183;DHT22;2105;52.300;9.182;2023-11-19T16:18:09;11.40;99.90